createdAt,value
2019-04-28T00:00:13.246Z,2
2019-04-28T00:01:25.187Z,1.3
2019-04-28T00:02:02.177Z,1.2
2019-04-28T00:03:13.214Z,0.9
2019-04-28T00:04:25.258Z,0.9
2019-04-28T00:05:02.323Z,0.9
2019-04-28T00:06:13.166Z,0.8
2019-04-28T00:07:25.247Z,0.6
2019-04-28T00:08:02.005Z,0.8
2019-04-28T00:09:13.272Z,0.8
2019-04-28T00:10:25.190Z,0.8
2019-04-28T00:11:02.636Z,0.6
2019-04-28T00:12:13.249Z,0.9
2019-04-28T00:12:51.352Z,0.9
2019-04-28T00:14:02.728Z,0.8
2019-04-28T00:15:13.201Z,0.8
2019-04-28T00:16:25.310Z,0.9
2019-04-28T00:17:01.900Z,0.8
2019-04-28T00:18:13.269Z,0.9
2019-04-28T00:18:51.266Z,0.8
2019-04-28T00:20:02.179Z,1
2019-04-28T00:21:13.260Z,1.2
2019-04-28T00:22:25.208Z,1.4
2019-04-28T00:23:07.406Z,1.6
2019-04-28T00:24:13.217Z,1.1
2019-04-28T00:25:25.262Z,0.9
2019-04-28T00:26:02.800Z,1.1
2019-04-28T00:27:13.205Z,0.9
2019-04-28T00:28:25.254Z,1
2019-04-28T00:29:02.072Z,1.1
2019-04-28T00:29:46.668Z,1.1
2019-04-28T00:31:25.211Z,0.8
2019-04-28T00:32:02.022Z,0.8
2019-04-28T00:33:13.237Z,0.8
2019-04-28T00:34:25.203Z,0.6
2019-04-28T00:35:03.160Z,0.8
2019-04-28T00:36:13.203Z,0.8
2019-04-28T00:37:37.209Z,0.8
2019-04-28T00:38:13.828Z,0.8
2019-04-28T00:39:25.200Z,0.6
2019-04-28T00:40:01.906Z,0.8
2019-04-28T00:41:13.257Z,0.8
2019-04-28T00:42:25.163Z,0.8
2019-04-28T00:43:01.698Z,0.6
2019-04-28T00:44:13.182Z,1
2019-04-28T00:45:25.268Z,0.8
2019-04-28T00:46:01.769Z,0.8
2019-04-28T00:47:13.159Z,0.8
2019-04-28T00:47:51.294Z,0.8
2019-04-28T00:49:02.972Z,1.1
2019-04-28T00:50:13.252Z,1
2019-04-28T00:51:25.165Z,0.9
2019-04-28T00:52:03.641Z,1.1
2019-04-28T00:53:13.234Z,1.3
2019-04-28T00:53:51.170Z,1.6
2019-04-28T00:55:02.049Z,1
2019-04-28T00:56:13.194Z,1.4
2019-04-28T00:57:25.238Z,1.3
2019-04-28T00:58:01.788Z,1
2019-04-28T00:59:13.255Z,1.5
2019-04-28T00:59:59.469Z,1.2
2019-04-28T01:01:02.237Z,1.7
2019-04-28T01:02:13.235Z,1.4
2019-04-28T01:02:51.236Z,1.4
2019-04-28T01:04:02.951Z,1.7
2019-04-28T01:05:13.208Z,0.9
2019-04-28T01:07:02.464Z,1.4
2019-04-28T01:08:13.179Z,1.5
2019-04-28T01:09:25.252Z,1.1
2019-04-28T01:10:02.277Z,0.8
2019-04-28T01:11:13.264Z,1.2
2019-04-28T01:12:25.186Z,0.8
2019-04-28T01:13:03.191Z,1.2
2019-04-28T01:14:13.223Z,1.5
2019-04-28T01:14:57.366Z,1.5
2019-04-28T01:16:01.239Z,1.6
2019-04-28T01:17:13.191Z,1.2
2019-04-28T01:17:50.476Z,1.2
2019-04-28T01:18:25.248Z,1.2
2019-04-28T01:19:01.210Z,1.3
2019-04-28T01:20:13.155Z,1.3
2019-04-28T01:20:50.396Z,1.2
2019-04-28T01:22:01.224Z,0.8
2019-04-28T01:23:13.240Z,0.8
2019-04-28T01:23:50.947Z,0.8
2019-04-28T01:25:01.149Z,0.9
2019-04-28T01:26:13.217Z,0.8
2019-04-28T01:26:51.529Z,0.6
2019-04-28T01:28:01.223Z,0.8
2019-04-28T01:29:13.157Z,0.9
2019-04-28T01:30:09.059Z,0.8
2019-04-28T01:31:01.203Z,0.8
2019-04-28T01:32:13.248Z,0.8
2019-04-28T01:32:50.614Z,0.8
2019-04-28T01:34:02.468Z,1.4
2019-04-28T01:35:13.233Z,1.5
2019-04-28T01:35:50.208Z,1.1
2019-04-28T01:37:01.265Z,0.9
2019-04-28T01:38:13.209Z,1.6
2019-04-28T01:38:50.895Z,1
2019-04-28T01:40:01.228Z,1.1
2019-04-28T01:41:13.148Z,1
2019-04-28T01:41:50.447Z,1.1
2019-04-28T01:43:01.185Z,1.2
2019-04-28T01:44:13.232Z,0.9
2019-04-28T01:44:50.316Z,1.1
2019-04-28T01:46:01.148Z,0.8
2019-04-28T01:47:13.234Z,1.3
2019-04-28T01:47:51.127Z,1.6
2019-04-28T01:49:01.269Z,1.2
2019-04-28T01:50:13.197Z,0.8
2019-04-28T01:50:50.809Z,0.8
2019-04-28T01:52:01.988Z,0.8
2019-04-28T01:53:13.170Z,1
2019-04-28T01:53:51.190Z,0.8
2019-04-28T01:55:01.383Z,1
2019-04-28T01:56:13.243Z,0.8
2019-04-28T01:56:50.975Z,0.8
2019-04-28T01:58:01.129Z,0.8
2019-04-28T01:59:13.257Z,0.8
2019-04-28T01:59:50.823Z,0.8
2019-04-28T02:01:01.223Z,0.6
2019-04-28T02:02:13.141Z,0.8
2019-04-28T02:02:51.326Z,0.8
2019-04-28T02:04:01.221Z,0.8
2019-04-28T02:05:13.131Z,0.8
2019-04-28T02:05:50.887Z,0.8
2019-04-28T02:07:01.138Z,0.8
2019-04-28T02:08:13.209Z,0.9
2019-04-28T02:08:52.014Z,0.9
2019-04-28T02:10:01.606Z,0.8
2019-04-28T02:11:13.204Z,0.8
2019-04-28T02:12:01.639Z,0.8
2019-04-28T02:13:13.225Z,0.8
2019-04-28T02:13:50.506Z,0.7
2019-04-28T02:15:01.972Z,0.4
2019-04-28T02:16:13.226Z,0.6
2019-04-28T02:16:51.155Z,0.8
2019-04-28T02:18:01.243Z,0.8
2019-04-28T02:19:13.183Z,0.6
2019-04-28T02:19:49.151Z,0.6
2019-04-28T02:21:01.217Z,0.6
2019-04-28T02:22:13.151Z,0
2019-04-28T02:22:50.872Z,0.6
2019-04-28T02:24:01.175Z,0.6
2019-04-28T02:25:13.250Z,0.4
2019-04-28T02:25:50.789Z,0.2
2019-04-28T02:27:01.802Z,0.8
2019-04-28T02:28:13.189Z,0.8
2019-04-28T02:28:51.194Z,0.8
2019-04-28T02:30:01.241Z,0.6
2019-04-28T02:30:54.324Z,0
2019-04-28T02:31:51.801Z,0.2
2019-04-28T02:33:02.575Z,0.4
2019-04-28T02:34:13.138Z,0.6
2019-04-28T02:34:51.540Z,0.4
2019-04-28T02:36:02.325Z,0.2
2019-04-28T02:37:13.226Z,0.6
2019-04-28T02:37:51.293Z,0.8
2019-04-28T02:39:01.694Z,0.6
2019-04-28T02:40:13.173Z,0.4
2019-04-28T02:40:51.331Z,0.2
2019-04-28T02:42:02.615Z,0.4
2019-04-28T02:43:13.152Z,0.2
2019-04-28T02:43:51.799Z,0.6
2019-04-28T02:45:01.731Z,0
2019-04-28T02:46:13.234Z,0.7
2019-04-28T02:46:51.654Z,0.9
2019-04-28T02:48:01.956Z,0.8
2019-04-28T02:49:13.194Z,0.8
2019-04-28T02:49:51.212Z,0.6
2019-04-28T02:51:02.075Z,0.8
2019-04-28T02:52:13.202Z,0.8
2019-04-28T02:52:52.658Z,0.8
2019-04-28T02:54:01.511Z,0.8
2019-04-28T02:55:13.166Z,1.2
2019-04-28T02:55:52.136Z,0.9
2019-04-28T02:57:02.230Z,1.3
2019-04-28T02:58:14.407Z,1.2
2019-04-28T02:58:51.910Z,1.1
2019-04-28T03:00:01.475Z,1
2019-04-28T03:01:27.325Z,1
2019-04-28T03:03:02.511Z,1.4
2019-04-28T03:04:13.238Z,1.3
2019-04-28T03:04:51.570Z,1.3
2019-04-28T03:06:02.450Z,1.1
2019-04-28T03:07:15.485Z,1.1
2019-04-28T03:07:52.428Z,1
2019-04-28T03:09:01.257Z,1.1
2019-04-28T03:10:13.238Z,1.1
2019-04-28T03:10:51.739Z,1.1
2019-04-28T03:12:02.390Z,1.3
2019-04-28T03:13:14.351Z,1.4
2019-04-28T03:13:51.834Z,1.5
2019-04-28T03:15:01.709Z,1.3
2019-04-28T03:16:13.151Z,1.1
2019-04-28T03:16:51.813Z,1.7
2019-04-28T03:18:02.774Z,1.7
2019-04-28T03:19:13.229Z,1.5
2019-04-28T03:19:52.509Z,1.2
2019-04-28T03:20:37.202Z,1.4
2019-04-28T03:21:13.168Z,1.5
2019-04-28T03:21:51.809Z,1.6
2019-04-28T03:23:01.912Z,1.4
2019-04-28T03:24:14.161Z,1.5
2019-04-28T03:24:51.841Z,1.3
2019-04-28T03:26:02.341Z,1.2
2019-04-28T03:27:13.217Z,0.8
2019-04-28T03:27:51.777Z,0.9
2019-04-28T03:29:13.188Z,1.2
2019-04-28T03:29:53.238Z,1.7
2019-04-28T03:32:09.283Z,1.5
2019-04-28T03:32:52.725Z,1.3
2019-04-28T03:32:54.819Z,1.5
2019-04-28T03:34:05.554Z,1.9
2019-04-28T03:35:14.210Z,1.7
2019-04-28T03:35:54.910Z,1.9
2019-04-28T03:37:01.181Z,1.4
2019-04-28T03:37:52.070Z,1.5
2019-04-28T03:39:01.667Z,2.1
2019-04-28T03:40:13.129Z,2.4
2019-04-28T03:40:52.050Z,2.5
2019-04-28T03:42:01.153Z,2.5
2019-04-28T03:43:15.443Z,2.5
2019-04-28T03:43:52.192Z,2.1
2019-04-28T03:45:02.126Z,2.1
2019-04-28T03:46:25.205Z,2
2019-04-28T03:47:03.944Z,1.7
2019-04-28T03:48:13.127Z,1.7
2019-04-28T03:48:51.793Z,1.7
2019-04-28T03:50:01.243Z,2
2019-04-28T03:51:14.344Z,1.9
2019-04-28T03:51:51.449Z,1.6
2019-04-28T03:53:02.014Z,1.3
2019-04-28T03:54:13.186Z,1.3
2019-04-28T03:54:52.040Z,1.3
2019-04-28T03:56:02.520Z,1.8
2019-04-28T03:57:13.151Z,1.7
2019-04-28T03:57:51.794Z,1.7
2019-04-28T03:59:01.406Z,1.8
2019-04-28T04:00:13.467Z,1.7
2019-04-28T04:00:51.520Z,1.7
2019-04-28T04:02:04.180Z,1.9
2019-04-28T04:03:13.195Z,1.6
2019-04-28T04:03:52.434Z,1.5
2019-04-28T04:05:04.998Z,2
2019-04-28T04:06:13.170Z,2.1
2019-04-28T04:06:51.660Z,2.2
2019-04-28T04:08:01.905Z,1.9
2019-04-28T04:09:13.108Z,2
2019-04-28T04:09:52.248Z,2.2
2019-04-28T04:11:01.273Z,1.6
2019-04-28T04:12:13.223Z,2.5
2019-04-28T04:12:51.738Z,1.7
2019-04-28T04:14:02.612Z,1.6
2019-04-28T04:15:13.153Z,2
2019-04-28T04:15:55.423Z,1.8
2019-04-28T04:17:01.244Z,2.1
2019-04-28T04:18:13.139Z,2.4
2019-04-28T04:18:54.686Z,2.3
2019-04-28T04:20:02.659Z,2.1
2019-04-28T04:21:13.093Z,2.1
2019-04-28T04:21:53.634Z,2.2
2019-04-28T04:23:02.403Z,1.9
2019-04-28T04:24:13.173Z,1.8
2019-04-28T04:24:53.102Z,2
2019-04-28T04:26:02.679Z,1.5
2019-04-28T04:27:13.172Z,1.4
2019-04-28T04:27:51.044Z,1.6
2019-04-28T04:29:01.905Z,1.2
2019-04-28T04:30:13.144Z,1.9
2019-04-28T04:30:51.695Z,1.9
2019-04-28T04:32:27.400Z,1.9
2019-04-28T04:33:13.226Z,2.5
2019-04-28T04:33:51.486Z,2.3
2019-04-28T04:35:01.709Z,1.5
2019-04-28T04:36:13.174Z,2.2
2019-04-28T04:36:51.671Z,2.5
2019-04-28T04:38:01.526Z,1.8
2019-04-28T04:38:46.837Z,1.8
2019-04-28T04:39:51.933Z,1.9
2019-04-28T04:41:02.534Z,1.8
2019-04-28T04:42:13.114Z,2.2
2019-04-28T04:42:50.965Z,2.3
2019-04-28T04:44:02.174Z,2.1
2019-04-28T04:44:42.230Z,2.7
2019-04-28T04:45:51.053Z,2.6
2019-04-28T04:47:01.880Z,1.9
2019-04-28T04:48:13.175Z,2
2019-04-28T04:48:51.796Z,1.8
2019-04-28T04:50:01.256Z,3.2
2019-04-28T04:51:13.137Z,1.3
2019-04-28T04:51:51.715Z,1.3
2019-04-28T04:53:03.612Z,1.9
2019-04-28T04:54:13.097Z,2.4
2019-04-28T04:55:02.181Z,3.1
2019-04-28T04:56:13.209Z,1.9
2019-04-28T04:56:50.950Z,2.3
2019-04-28T04:58:01.835Z,2
2019-04-28T04:59:13.211Z,2.5
2019-04-28T04:59:50.821Z,2.6
2019-04-28T05:01:01.686Z,1.9
2019-04-28T05:02:33.502Z,1.9
2019-04-28T05:03:37.159Z,1.5
2019-04-28T05:04:13.200Z,2
2019-04-28T05:04:51.136Z,1.7
2019-04-28T05:06:01.153Z,2.1
2019-04-28T05:07:13.102Z,1.8
2019-04-28T05:07:51.180Z,1.8
2019-04-28T05:09:01.117Z,2.4
2019-04-28T05:10:13.205Z,2.4
2019-04-28T05:10:51.185Z,2.4
2019-04-28T05:12:01.097Z,3.1
2019-04-28T05:13:13.179Z,2.4
2019-04-28T05:13:50.559Z,2.3
2019-04-28T05:15:01.355Z,2.4
2019-04-28T05:16:13.133Z,3.3
2019-04-28T05:16:50.584Z,1.7
2019-04-28T05:18:01.167Z,1.4
2019-04-28T05:19:13.093Z,1.8
2019-04-28T05:19:50.513Z,1.7
2019-04-28T05:21:01.127Z,1.6
2019-04-28T05:22:13.180Z,3.3
2019-04-28T05:22:51.278Z,3.6
2019-04-28T05:24:01.079Z,3.1
2019-04-28T05:25:13.147Z,2.2
2019-04-28T05:25:50.539Z,2.1
2019-04-28T05:27:01.165Z,2.9
2019-04-28T05:28:13.117Z,2.5
2019-04-28T05:28:53.944Z,2
2019-04-28T05:29:30.413Z,1.9
2019-04-28T05:30:43.614Z,1.6
2019-04-28T05:31:24.798Z,1.8
2019-04-28T05:32:03.118Z,2.6
2019-04-28T05:33:01.175Z,1.5
2019-04-28T05:34:13.146Z,1.3
2019-04-28T05:34:53.594Z,1.6
2019-04-28T05:36:03.842Z,1.9
2019-04-28T05:36:45.308Z,1.8
2019-04-28T05:37:50.244Z,1.7
2019-04-28T05:39:01.150Z,1.9
2019-04-28T05:39:41.124Z,2
2019-04-28T05:40:50.616Z,2.8
2019-04-28T05:42:01.753Z,1.7
2019-04-28T05:43:13.202Z,2
2019-04-28T05:43:51.163Z,1.8
2019-04-28T05:45:01.231Z,1.5
2019-04-28T05:46:13.159Z,1
2019-04-28T05:46:51.434Z,1.4
2019-04-28T05:48:01.207Z,1.6
2019-04-28T05:49:13.128Z,1.9
2019-04-28T05:49:52.054Z,1.7
2019-04-28T05:51:02.668Z,2.2
2019-04-28T05:52:13.080Z,2.3
2019-04-28T05:52:50.947Z,2.3
2019-04-28T05:54:01.102Z,1.6
2019-04-28T05:55:13.173Z,1.8
2019-04-28T05:55:51.012Z,1.8
2019-04-28T05:57:03.244Z,1.6
2019-04-28T05:58:13.145Z,1.6
2019-04-28T05:58:51.203Z,1.5
2019-04-28T06:00:04.383Z,2.2
2019-04-28T06:01:13.091Z,2.5
2019-04-28T06:01:51.099Z,2.7
2019-04-28T06:03:01.503Z,2.2
2019-04-28T06:04:13.094Z,2
2019-04-28T06:04:50.342Z,1.8
2019-04-28T06:06:01.115Z,2
2019-04-28T06:07:13.165Z,2.2
2019-04-28T06:07:50.155Z,2
2019-04-28T06:09:01.048Z,1.4
2019-04-28T06:10:13.379Z,1.8
2019-04-28T06:10:50.647Z,1.2
2019-04-28T06:12:01.164Z,2.1
2019-04-28T06:13:13.102Z,1.5
2019-04-28T06:13:53.113Z,1.6
2019-04-28T06:15:01.131Z,1.5
2019-04-28T06:16:13.163Z,1.4
2019-04-28T06:16:51.385Z,1.5
2019-04-28T06:18:01.093Z,2
2019-04-28T06:19:13.145Z,2.2
2019-04-28T06:19:51.147Z,2.3
2019-04-28T06:21:01.168Z,2.5
2019-04-28T06:22:13.092Z,2
2019-04-28T06:22:49.091Z,2.5
2019-04-28T06:24:01.142Z,2.5
2019-04-28T06:25:13.095Z,1.4
2019-04-28T06:25:49.659Z,1.2
2019-04-28T06:27:01.112Z,3.8
2019-04-28T06:28:13.169Z,3.5
2019-04-28T06:28:49.196Z,2.2
2019-04-28T06:30:01.062Z,2.1
2019-04-28T06:31:13.139Z,1.9
2019-04-28T06:31:49.107Z,2.2
2019-04-28T06:33:09.078Z,2.1
2019-04-28T06:34:13.095Z,1.9
2019-04-28T06:34:49.072Z,1.7
2019-04-28T06:36:01.152Z,3.3
2019-04-28T06:37:13.056Z,2.3
2019-04-28T06:37:49.167Z,1.3
2019-04-28T06:39:01.083Z,2.4
2019-04-28T06:40:13.186Z,2.7
2019-04-28T06:40:49.098Z,3
2019-04-28T06:42:01.069Z,1.6
2019-04-28T06:43:13.120Z,1.9
2019-04-28T06:43:49.093Z,1.9
2019-04-28T06:45:01.145Z,1.9
2019-04-28T06:46:13.081Z,1.9
2019-04-28T06:46:49.050Z,2.4
2019-04-28T06:48:01.154Z,2.2
2019-04-28T06:49:13.161Z,2.2
2019-04-28T06:49:49.123Z,2.2
2019-04-28T06:51:01.067Z,1.2
2019-04-28T06:52:13.158Z,1.8
2019-04-28T06:52:49.150Z,1.9
2019-04-28T06:54:01.155Z,2.6
2019-04-28T06:55:13.080Z,2.9
2019-04-28T06:55:49.052Z,2.6
2019-04-28T06:57:01.147Z,0.6
2019-04-28T06:58:13.077Z,2.3
2019-04-28T06:59:00.075Z,2.3
2019-04-28T07:00:01.120Z,3.4
2019-04-28T07:01:13.168Z,3.6
2019-04-28T07:01:49.115Z,3.6
2019-04-28T07:03:01.071Z,1.3
2019-04-28T07:04:13.144Z,1.3
2019-04-28T07:05:02.854Z,1.1
2019-04-28T07:06:01.132Z,2.2
2019-04-28T07:07:13.121Z,2.5
2019-04-28T07:07:49.072Z,2.3
2019-04-28T07:09:01.125Z,2.3
2019-04-28T07:10:13.099Z,2.5
2019-04-28T07:10:49.144Z,2.4
2019-04-28T07:12:13.086Z,3.5
2019-04-28T07:12:49.082Z,2.8
2019-04-28T07:14:01.167Z,3.1
2019-04-28T07:15:13.085Z,2.7
2019-04-28T07:15:49.034Z,3
2019-04-28T07:17:01.095Z,3.7
2019-04-28T07:18:13.036Z,2.2
2019-04-28T07:18:49.142Z,3.1
2019-04-28T07:20:01.076Z,3.1
2019-04-28T07:21:13.126Z,2.6
2019-04-28T07:21:49.112Z,2.9
2019-04-28T07:23:01.034Z,2.3
2019-04-28T07:24:13.092Z,2.5
2019-04-28T07:24:49.083Z,2.1
2019-04-28T07:26:01.108Z,1.2
2019-04-28T07:27:13.061Z,1.8
2019-04-28T07:27:49.016Z,1.3
2019-04-28T07:29:01.088Z,1.8
2019-04-28T07:30:13.169Z,1.9
2019-04-28T07:30:49.142Z,1.3
2019-04-28T07:32:01.128Z,2.6
2019-04-28T07:33:49.145Z,2.7
2019-04-28T07:35:01.181Z,2.5
2019-04-28T07:36:18.612Z,1.7
2019-04-28T07:38:01.127Z,2.3
2019-04-28T07:39:13.037Z,3.2
2019-04-28T07:39:49.128Z,2.5
2019-04-28T07:41:01.117Z,1.9
2019-04-28T07:42:13.132Z,1.8
2019-04-28T07:42:49.103Z,2.6
2019-04-28T07:44:01.050Z,3.1
2019-04-28T07:45:13.100Z,2.3
2019-04-28T07:45:49.081Z,2.1
2019-04-28T07:47:01.140Z,2.4
2019-04-28T07:48:13.071Z,2.8
2019-04-28T07:48:49.031Z,2.5
2019-04-28T07:50:01.105Z,1.9
2019-04-28T07:51:13.028Z,2.4
2019-04-28T07:51:49.138Z,2
2019-04-28T07:53:01.103Z,0.9
2019-04-28T07:54:13.120Z,1.6
2019-04-28T07:54:49.076Z,1.8
2019-04-28T07:56:01.035Z,1.5
2019-04-28T07:57:13.103Z,1.6
2019-04-28T07:57:49.032Z,0.8
2019-04-28T07:59:01.127Z,2.7
2019-04-28T08:00:13.061Z,2.6
2019-04-28T08:00:49.766Z,3.8
2019-04-28T08:02:01.071Z,2.9
2019-04-28T08:03:13.023Z,2.4
2019-04-28T08:03:50.751Z,2.1
2019-04-28T08:05:01.076Z,3.4
2019-04-28T08:06:13.117Z,1.5
2019-04-28T08:06:49.136Z,2.2
2019-04-28T08:08:01.145Z,3
2019-04-28T08:09:13.087Z,1.5
2019-04-28T08:09:49.047Z,2.7
2019-04-28T08:11:01.608Z,2.3
2019-04-28T08:12:13.072Z,1.3
2019-04-28T08:12:50.052Z,1.4
2019-04-28T08:14:01.087Z,1.8
2019-04-28T08:15:13.140Z,2
2019-04-28T08:15:49.098Z,2.1
2019-04-28T08:17:01.035Z,2.5
2019-04-28T08:18:13.085Z,1.9
2019-04-28T08:18:49.073Z,2
2019-04-28T08:20:01.119Z,2.1
2019-04-28T08:21:13.075Z,2.1
2019-04-28T08:21:49.036Z,1.9
2019-04-28T08:23:01.101Z,2.2
2019-04-28T08:23:48.237Z,1.3
2019-04-28T08:24:49.088Z,2.3
2019-04-28T08:25:31.162Z,2.4
2019-04-28T08:27:13.105Z,1.8
2019-04-28T08:27:49.054Z,1.5
2019-04-28T08:29:01.001Z,2
2019-04-28T08:30:13.085Z,1.2
2019-04-28T08:30:49.036Z,2.3
2019-04-28T08:32:01.108Z,2.9
2019-04-28T08:33:13.042Z,2.4
2019-04-28T08:34:02.918Z,3.2
2019-04-28T08:35:01.097Z,3.5
2019-04-28T08:36:13.003Z,2.3
2019-04-28T08:36:49.071Z,2.9
2019-04-28T08:38:01.042Z,3.2
2019-04-28T08:39:13.109Z,3.2
2019-04-28T08:39:49.061Z,2.9
2019-04-28T08:41:01.013Z,2.5
2019-04-28T08:42:13.070Z,2.9
2019-04-28T08:42:49.061Z,2.9
2019-04-28T08:44:01.083Z,2.9
2019-04-28T08:45:13.022Z,3.3
2019-04-28T08:45:49.006Z,2.6
2019-04-28T08:47:01.045Z,2.7
2019-04-28T08:48:12.998Z,2.5
2019-04-28T08:48:49.093Z,2.8
2019-04-28T08:50:01.008Z,3.7
2019-04-28T08:51:13.170Z,4.8
2019-04-28T08:51:49.045Z,4.4
2019-04-28T08:53:01.090Z,2.7
2019-04-28T08:54:13.033Z,4.1
2019-04-28T08:54:49.003Z,4.2
2019-04-28T08:56:01.074Z,3.1
2019-04-28T08:57:13.017Z,2.6
2019-04-28T08:57:49.114Z,2.7
2019-04-28T08:59:01.041Z,1.5
2019-04-28T09:00:13.103Z,3.3
2019-04-28T09:00:49.070Z,2.5
2019-04-28T09:02:01.040Z,2.9
2019-04-28T09:03:13.064Z,3.3
2019-04-28T09:03:49.015Z,4.2
2019-04-28T09:05:01.082Z,2.3
2019-04-28T09:06:13.048Z,2.3
2019-04-28T09:06:48.984Z,2.3
2019-04-28T09:08:01.069Z,2.5
2019-04-28T09:09:12.986Z,2.8
2019-04-28T09:09:49.104Z,2.1
2019-04-28T09:11:01.023Z,1.1
2019-04-28T09:12:13.090Z,1.1
2019-04-28T09:12:49.159Z,1.9
2019-04-28T09:14:00.998Z,1.4
2019-04-28T09:15:13.044Z,1.6
2019-04-28T09:15:49.013Z,2.7
2019-04-28T09:17:01.077Z,3.5
2019-04-28T09:18:13.048Z,1.4
2019-04-28T09:18:48.990Z,1.1
2019-04-28T09:20:01.029Z,3
2019-04-28T09:21:12.985Z,2
2019-04-28T09:21:49.062Z,1.5
2019-04-28T09:23:01.044Z,1.4
2019-04-28T09:24:13.076Z,1.2
2019-04-28T09:24:49.031Z,2
2019-04-28T09:26:00.999Z,1.1
2019-04-28T09:27:13.041Z,1.4
2019-04-28T09:27:49.004Z,1.2
2019-04-28T09:29:01.079Z,0.8
2019-04-28T09:30:13.008Z,1.4
2019-04-28T09:30:48.992Z,1.4
2019-04-28T09:32:01.041Z,1.5
2019-04-28T09:33:13.086Z,3.3
2019-04-28T09:33:49.053Z,2.9
2019-04-28T09:34:29.726Z,1.2
2019-04-28T09:36:13.063Z,1.6
2019-04-28T09:36:49.018Z,1.4
2019-04-28T09:38:01.085Z,2.5
2019-04-28T09:39:13.055Z,1.2
2019-04-28T09:39:49.102Z,1.2
2019-04-28T09:41:01.049Z,2.3
2019-04-28T09:42:13.001Z,1.8
2019-04-28T09:42:49.080Z,2
2019-04-28T09:44:01.027Z,1.6
2019-04-28T09:45:13.189Z,2
2019-04-28T09:45:49.083Z,2.3
2019-04-28T09:47:00.977Z,1.7
2019-04-28T09:48:13.047Z,1.4
2019-04-28T09:48:49.141Z,1.3
2019-04-28T09:50:01.089Z,1.1
2019-04-28T09:51:12.997Z,1.3
2019-04-28T09:51:49.018Z,1.2
2019-04-28T09:53:01.042Z,0.9
2019-04-28T09:54:12.977Z,1.6
2019-04-28T09:54:49.065Z,1.2
2019-04-28T09:56:01.124Z,1.7
2019-04-28T09:57:13.060Z,2.2
2019-04-28T09:57:49.041Z,2
2019-04-28T09:59:00.963Z,3.2
2019-04-28T10:00:13.048Z,2.8
2019-04-28T10:00:49.041Z,1.8
2019-04-28T10:02:01.044Z,2.8
2019-04-28T10:03:13.060Z,1.8
2019-04-28T10:03:49.024Z,2.6
2019-04-28T10:05:01.026Z,3.3
2019-04-28T10:06:12.965Z,2.2
2019-04-28T10:06:49.155Z,2.7
2019-04-28T10:08:00.984Z,2.2
2019-04-28T10:09:13.047Z,2.1
2019-04-28T10:09:48.999Z,2.4
2019-04-28T10:11:00.951Z,3.1
2019-04-28T10:12:26.256Z,3.6
2019-04-28T10:14:01.054Z,2.7
2019-04-28T10:15:12.979Z,2.3
2019-04-28T10:15:49.067Z,2
2019-04-28T10:17:01.013Z,1
2019-04-28T10:17:42.599Z,1
2019-04-28T10:18:49.044Z,0.8
2019-04-28T10:20:00.970Z,1.1
2019-04-28T10:21:13.047Z,1
2019-04-28T10:21:49.009Z,1.2
2019-04-28T10:23:01.145Z,1.5
2019-04-28T10:24:12.993Z,0.9
2019-04-28T10:24:48.998Z,1
2019-04-28T10:26:01.044Z,1.2
2019-04-28T10:27:12.969Z,1.9
2019-04-28T10:27:49.035Z,2.3
2019-04-28T10:29:01.006Z,2.4
2019-04-28T10:30:13.044Z,2.3
2019-04-28T10:30:49.024Z,2.1
2019-04-28T10:32:00.974Z,1.5
2019-04-28T10:33:13.009Z,1
2019-04-28T10:33:48.980Z,0.6
2019-04-28T10:35:01.059Z,1
2019-04-28T10:36:13.003Z,1
2019-04-28T10:36:48.959Z,1.1
2019-04-28T10:38:01.000Z,0.9
2019-04-28T10:39:12.961Z,2
2019-04-28T10:39:49.053Z,1.8
2019-04-28T10:41:00.963Z,1.8
2019-04-28T10:42:13.035Z,3
2019-04-28T10:42:49.005Z,3.4
2019-04-28T10:44:01.016Z,2.1
2019-04-28T10:45:13.015Z,2
2019-04-28T10:45:48.995Z,1.4
2019-04-28T10:47:01.032Z,1.4
2019-04-28T10:48:12.972Z,1
2019-04-28T10:48:48.943Z,1.3
2019-04-28T10:50:00.994Z,3.5
2019-04-28T10:51:13.002Z,1.1
2019-04-28T10:52:00.401Z,1.7
2019-04-28T10:53:01.029Z,1
2019-04-28T10:54:13.027Z,0.8
2019-04-28T10:54:49.000Z,1.3
2019-04-28T10:56:00.911Z,1.7
2019-04-28T10:57:13.047Z,1.7
2019-04-28T10:57:48.950Z,1.6
2019-04-28T10:59:01.035Z,1.5
2019-04-28T11:00:12.992Z,1.2
2019-04-28T11:00:49.030Z,1.1
2019-04-28T11:02:00.986Z,1.5
2019-04-28T11:03:13.076Z,0.9
2019-04-28T11:03:49.036Z,1.3
2019-04-28T11:05:09.686Z,1.4
2019-04-28T11:06:13.535Z,1.4
2019-04-28T11:06:49.003Z,2
2019-04-28T11:08:01.058Z,1.4
2019-04-28T11:09:12.969Z,1.2
2019-04-28T11:09:48.962Z,1.9
2019-04-28T11:11:01.005Z,3.3
2019-04-28T11:12:24.974Z,1.7
2019-04-28T11:13:00.954Z,2
2019-04-28T11:14:15.100Z,1.1
2019-04-28T11:14:49.053Z,1
2019-04-28T11:16:01.018Z,0.8
2019-04-28T11:17:12.960Z,1.1
2019-04-28T11:17:48.932Z,1.1
2019-04-28T11:19:00.981Z,1
2019-04-28T11:20:12.954Z,2.1
2019-04-28T11:20:49.040Z,2.2
2019-04-28T11:22:00.976Z,1
2019-04-28T11:23:13.042Z,1.6
2019-04-28T11:23:49.055Z,1.8
2019-04-28T11:25:00.943Z,1
2019-04-28T11:26:12.995Z,1.9
2019-04-28T11:26:48.976Z,2
2019-04-28T11:28:01.015Z,1.3
2019-04-28T11:28:38.694Z,1
2019-04-28T11:29:48.932Z,0.9
2019-04-28T11:31:00.981Z,2.3
2019-04-28T11:32:12.905Z,1.4
2019-04-28T11:32:49.029Z,1.5
2019-04-28T11:34:00.934Z,0.8
2019-04-28T11:35:22.760Z,1
2019-04-28T11:37:00.920Z,0.9
2019-04-28T11:38:12.963Z,1.6
2019-04-28T11:38:48.952Z,1.3
2019-04-28T11:40:00.967Z,1.3
2019-04-28T11:41:12.940Z,0.8
2019-04-28T11:41:48.931Z,1.1
2019-04-28T11:43:00.953Z,1.4
2019-04-28T11:44:12.928Z,1.2
2019-04-28T11:44:48.984Z,1.5
2019-04-28T11:46:00.955Z,1.5
2019-04-28T11:47:13.051Z,1.6
2019-04-28T11:47:48.945Z,1.7
2019-04-28T11:49:00.910Z,2
2019-04-28T11:50:12.962Z,1
2019-04-28T11:50:48.961Z,2
2019-04-28T11:52:00.983Z,1
2019-04-28T11:53:12.925Z,1.8
2019-04-28T11:53:49.046Z,1.5
2019-04-28T11:55:00.949Z,1
2019-04-28T11:56:13.004Z,1.9
2019-04-28T11:56:48.995Z,1.9
2019-04-28T11:58:00.925Z,0.8
2019-04-28T11:59:13.012Z,1
2019-04-28T11:59:48.948Z,1
2019-04-28T12:01:01.023Z,1.2
2019-04-28T12:02:12.939Z,1.8
2019-04-28T12:02:48.915Z,1
2019-04-28T12:04:00.978Z,0.8
2019-04-28T12:05:12.913Z,0.8
2019-04-28T12:05:49.007Z,0.8
2019-04-28T12:07:00.943Z,1.1
2019-04-28T12:08:12.980Z,0.9
2019-04-28T12:08:48.947Z,1.1
2019-04-28T12:10:07.045Z,0.9
2019-04-28T12:11:12.967Z,0.9
2019-04-28T12:11:48.944Z,1
2019-04-28T12:13:00.976Z,1.4
2019-04-28T12:14:12.937Z,1.4
2019-04-28T12:14:48.904Z,1.6
2019-04-28T12:16:00.980Z,1.4
2019-04-28T12:17:15.251Z,1.2
2019-04-28T12:17:48.985Z,1.6
2019-04-28T12:19:00.940Z,0.9
2019-04-28T12:20:12.977Z,1.2
2019-04-28T12:20:48.970Z,1.1
2019-04-28T12:22:00.890Z,0.8
2019-04-28T12:23:12.963Z,1.1
2019-04-28T12:23:48.975Z,1.1
2019-04-28T12:25:00.979Z,0.6
2019-04-28T12:26:12.897Z,0.8
2019-04-28T12:26:48.952Z,0.8
2019-04-28T12:28:00.945Z,0.8
2019-04-28T12:29:12.900Z,0.8
2019-04-28T12:29:48.982Z,1
2019-04-28T12:31:00.935Z,0.8
2019-04-28T12:32:12.985Z,0.4
2019-04-28T12:32:48.948Z,0.6
2019-04-28T12:34:00.852Z,1.5
2019-04-28T12:35:12.930Z,1
2019-04-28T12:35:49.127Z,0.8
2019-04-28T12:37:00.977Z,0.9
2019-04-28T12:38:12.908Z,0.8
2019-04-28T12:38:48.883Z,1.2
2019-04-28T12:40:00.926Z,1.3
2019-04-28T12:41:12.872Z,0.8
2019-04-28T12:41:48.965Z,0.9
2019-04-28T12:43:00.903Z,1.3
2019-04-28T12:44:12.948Z,1.3
2019-04-28T12:44:48.916Z,1.1
2019-04-28T12:45:36.160Z,1
2019-04-28T12:47:12.925Z,0.8
2019-04-28T12:47:48.890Z,0.8
2019-04-28T12:49:00.986Z,1.1
2019-04-28T12:50:12.891Z,0.8
2019-04-28T12:50:48.968Z,0.8
2019-04-28T12:52:00.933Z,1.3
2019-04-28T12:53:12.961Z,0.8
2019-04-28T12:53:48.946Z,0.9
2019-04-28T12:55:00.846Z,0.9
2019-04-28T12:56:12.933Z,0.9
2019-04-28T12:56:48.926Z,0.7
2019-04-28T12:58:00.952Z,1.2
2019-04-28T12:59:12.882Z,1.1
2019-04-28T12:59:48.897Z,1.2
2019-04-28T13:01:00.946Z,1
2019-04-28T13:02:12.876Z,1.2
2019-04-28T13:02:48.942Z,1.3
2019-04-28T13:04:00.933Z,0.8
2019-04-28T13:05:12.955Z,1.2
2019-04-28T13:06:06.499Z,1
2019-04-28T13:07:00.867Z,1.4
2019-04-28T13:08:12.919Z,1.1
2019-04-28T13:08:48.986Z,1
2019-04-28T13:10:00.999Z,1.2
2019-04-28T13:11:12.895Z,0.9
2019-04-28T13:11:48.867Z,1.2
2019-04-28T13:13:00.933Z,0.8
2019-04-28T13:14:12.865Z,1
2019-04-28T13:14:48.952Z,0.8
2019-04-28T13:16:12.903Z,1.1
2019-04-28T13:16:48.893Z,1.1
2019-04-28T13:18:12.867Z,0.9
2019-04-28T13:18:48.974Z,0.9
2019-04-28T13:20:00.891Z,0.8
2019-04-28T13:21:12.944Z,1
2019-04-28T13:21:48.945Z,0.9
2019-04-28T13:23:00.886Z,0.8
2019-04-28T13:24:12.931Z,0.9
2019-04-28T13:24:48.910Z,1.2
2019-04-28T13:26:00.953Z,0.8
2019-04-28T13:27:12.907Z,0.9
2019-04-28T13:27:48.852Z,0.9
2019-04-28T13:29:00.939Z,0.9
2019-04-28T13:30:12.871Z,0.9
2019-04-28T13:30:48.928Z,0.9
2019-04-28T13:32:00.909Z,0.9
2019-04-28T13:33:12.958Z,0.8
2019-04-28T13:33:57.507Z,0.8
2019-04-28T13:35:00.883Z,1.1
2019-04-28T13:36:16.019Z,1.2
2019-04-28T13:36:48.881Z,0.6
2019-04-28T13:38:00.956Z,1.2
2019-04-28T13:39:12.856Z,2.5
2019-04-28T13:39:48.961Z,2.7
2019-04-28T13:41:00.883Z,1.2
2019-04-28T13:42:48.938Z,0.8
2019-04-28T13:44:00.894Z,0.8
2019-04-28T13:45:12.955Z,1.3
2019-04-28T13:45:48.867Z,2.4
2019-04-28T13:47:00.926Z,4.1
2019-04-28T13:48:12.973Z,3.1
2019-04-28T13:48:48.862Z,2.4
2019-04-28T13:49:36.873Z,1.3
2019-04-28T13:50:13.003Z,1.2
2019-04-28T13:50:49.917Z,1
2019-04-28T13:52:00.863Z,2.1
2019-04-28T13:53:13.126Z,1.3
2019-04-28T13:53:48.917Z,2.6
2019-04-28T13:55:00.965Z,1.3